Athens, TN

2:20 PM EDT on August 26, 2016 (GMT -0400)
City Park 2 | | Change Station

Elev 912 ft 35.44 °N, 84.60 °W | Updated 3 seconds ago

Clear
Clear
91.9 °F
Feels Like 100 °F
N
2.5
Wind Variable Wind from ENE
Gusts 4.9 mph

Today
High -- | Low -- °F
--% Chance of Precip.
Yesterday
High -- | Low -- °F
Precip. -- in
Pressure 30.11 in
Visibility 10.0 miles
Clouds Clear
Heat Index 100 °F
Dew Point 72 °F
Humidity 53%
Rainfall 0.00 in
Snow Depth Not available.
7:06 AM 8:12 PM
Waning Crescent, 32% visible
METAR KMMI 261815Z AUTO VRB05KT 10SM CLR 34/21 A3011 RMK
Pressure 30.11 in
Visibility 10.0 miles
Clouds Clear
Heat Index 100 °F
Dew Point 72 °F
Humidity 53%
Rainfall 0.00 in
Snow Depth Not available.
7:06 AM 8:12 PM
Waning Crescent, 32% visible
METAR KMMI 261815Z AUTO VRB05KT 10SM CLR 34/21 A3011 RMK

10-Day Weather Forecast

Almanac

Astronomy

Aug. 26, 2016 Rise Set
Actual Time
Civil Twilight
Nautical Twilight
Astronomical Twilight
Moon
Length of Visible Light
Length of Day
Tomorrow will be .
, % of the Moon is Illuminated

Today's Extremes

State Highs State Lows

Community

WunderPhotos

Upload Photos

1,935,166 photos uploaded!

WunderBlog® & News

Nearby

Air Quality

  Air Quality AQ Index Pollutant
Not available.

Snow Depth

Station Depth Elevation

Earthquake Activity

City Distance Mag. Time & Date
Minimum magnitude displayed is 2.5.

Coastal Water Temperatures

Place Temperature

Stations

Nearby Weather Stations

Station Location Temp. Windchill Dew Point Humidity Wind Precip. Elev Updated Type
                   

Watches & Warnings

There are currently no watches in effect.